createdAt,value
2017-01-19T00:00:30.924Z,0.75
2017-01-19T00:01:11.445Z,0.62
2017-01-19T00:01:52.173Z,0.66
2017-01-19T00:02:32.634Z,0.75
2017-01-19T00:03:13.244Z,0.73
2017-01-19T00:03:53.698Z,0.87
2017-01-19T00:04:34.255Z,0.96
2017-01-19T00:05:14.794Z,0.8
2017-01-19T00:05:55.447Z,0.83
2017-01-19T00:06:36.150Z,0.86
2017-01-19T00:07:16.832Z,0.86
2017-01-19T00:07:57.264Z,0.69
2017-01-19T00:08:37.799Z,0.78
2017-01-19T00:09:18.247Z,0.9
2017-01-19T00:09:59.616Z,0.83
2017-01-19T00:10:39.967Z,0.91
2017-01-19T00:11:20.590Z,0.94
2017-01-19T00:12:01.064Z,0.86
2017-01-19T00:12:41.600Z,0.84
2017-01-19T00:13:22.028Z,0.86
2017-01-19T00:14:02.614Z,0.73
2017-01-19T00:14:43.129Z,0.75
2017-01-19T00:15:23.552Z,0.76
2017-01-19T00:16:04.152Z,0.86
2017-01-19T00:16:44.651Z,0.93
2017-01-19T00:17:25.129Z,0.84
2017-01-19T00:18:05.671Z,0.8
2017-01-19T00:18:46.122Z,0.86
2017-01-19T00:19:26.675Z,0.65
2017-01-19T00:20:07.378Z,0.75
2017-01-19T00:20:47.906Z,0.49
2017-01-19T00:21:29.196Z,0.44
2017-01-19T00:22:10.041Z,0.68
2017-01-19T00:22:50.745Z,0.66
2017-01-19T00:23:31.384Z,0.62
2017-01-19T00:24:11.802Z,0.68
2017-01-19T00:24:52.327Z,0.62
2017-01-19T00:25:32.802Z,0.6
2017-01-19T00:26:13.552Z,0.49
2017-01-19T00:26:53.987Z,0.7
2017-01-19T00:27:34.533Z,0.72
2017-01-19T00:28:15.133Z,0.7
2017-01-19T00:28:55.793Z,0.61
2017-01-19T00:29:36.340Z,0.65
2017-01-19T00:30:16.779Z,0.6
2017-01-19T00:30:57.279Z,0.65
2017-01-19T00:31:37.745Z,0.7
2017-01-19T00:32:18.280Z,0.62
2017-01-19T00:32:58.841Z,0.61
2017-01-19T00:33:39.260Z,0.65
2017-01-19T00:34:19.684Z,0.68
2017-01-19T00:35:00.197Z,0.5
2017-01-19T00:35:40.650Z,0.6
2017-01-19T00:36:21.215Z,0.66
2017-01-19T00:37:01.587Z,0.62
2017-01-19T00:37:42.135Z,0.73
2017-01-19T00:38:22.699Z,0.76
2017-01-19T00:39:03.246Z,0.68
2017-01-19T00:39:43.710Z,0.65
2017-01-19T00:40:24.149Z,0.68
2017-01-19T00:41:04.655Z,0.6
2017-01-19T00:41:45.169Z,0.6
2017-01-19T00:42:25.786Z,0.58
2017-01-19T00:43:06.311Z,0.5
2017-01-19T00:43:46.775Z,0.47
2017-01-19T00:44:27.331Z,0.47
2017-01-19T00:45:07.766Z,0.47
2017-01-19T00:45:48.239Z,0.53
2017-01-19T00:46:28.896Z,0.38
2017-01-19T00:47:09.335Z,0.42
2017-01-19T00:47:49.739Z,0.39
2017-01-19T00:48:30.307Z,0.5
2017-01-19T00:49:11.153Z,0.5
2017-01-19T00:49:51.611Z,0.69
2017-01-19T00:50:32.123Z,0.58
2017-01-19T00:51:12.700Z,0.61
2017-01-19T00:51:53.156Z,0.53
2017-01-19T00:52:33.670Z,0.6
2017-01-19T00:53:14.110Z,0.57
2017-01-19T00:53:54.716Z,0.51
2017-01-19T00:54:35.122Z,0.41
2017-01-19T00:55:15.735Z,0.57
2017-01-19T00:55:56.123Z,0.6
2017-01-19T00:56:36.609Z,0.65
2017-01-19T00:57:17.121Z,0.57
2017-01-19T00:57:57.650Z,0.66
2017-01-19T00:58:38.084Z,0.61
2017-01-19T00:59:18.529Z,0.62
2017-01-19T00:59:59.098Z,0.65
2017-01-19T01:00:39.538Z,0.66
2017-01-19T01:01:20.013Z,0.61
2017-01-19T01:02:00.541Z,0.72
2017-01-19T01:02:40.960Z,0.68
2017-01-19T01:03:21.510Z,0.72
2017-01-19T01:04:02.074Z,0.61
2017-01-19T01:04:42.634Z,0.49
2017-01-19T01:05:23.131Z,0.62
2017-01-19T01:06:03.654Z,0.62
2017-01-19T01:06:44.168Z,0.66
2017-01-19T01:07:24.587Z,0.57
2017-01-19T01:08:05.135Z,0.47
2017-01-19T01:08:45.581Z,0.53
2017-01-19T01:09:26.176Z,0.36
2017-01-19T01:10:06.645Z,0.44
2017-01-19T01:10:47.112Z,0.47
2017-01-19T01:11:27.599Z,0.53
2017-01-19T01:12:08.051Z,0.38
2017-01-19T01:12:48.553Z,0.42
2017-01-19T01:13:28.996Z,0.35
2017-01-19T01:14:09.606Z,0.11
2017-01-19T01:14:50.086Z,0.18
2017-01-19T01:15:30.561Z,0.23
2017-01-19T01:16:11.115Z,0.29
2017-01-19T01:18:24.325Z,0.21
2017-01-19T01:19:04.710Z,0.02
2017-01-19T01:19:45.196Z,0.07
2017-01-19T01:20:25.705Z,0.04
2017-01-19T01:21:06.206Z,-0.15
2017-01-19T01:21:46.646Z,-0.03
2017-01-19T01:22:27.145Z,-0.01
2017-01-19T01:23:07.615Z,-0.1
2017-01-19T01:23:48.100Z,-0.16
2017-01-19T01:24:28.706Z,-0.16
2017-01-19T01:25:09.115Z,-0.11
2017-01-19T01:25:49.589Z,-0.21
2017-01-19T01:26:30.106Z,-0.21
2017-01-19T01:27:10.719Z,-0.01
2017-01-19T01:27:51.242Z,0.04
2017-01-19T01:28:31.903Z,0.04
2017-01-19T01:29:12.403Z,0
2017-01-19T01:29:52.804Z,-0.15
2017-01-19T01:30:33.410Z,-0.1
2017-01-19T01:31:13.811Z,-0.04
2017-01-19T01:31:54.254Z,-0.05
2017-01-19T01:32:34.827Z,-0.11
2017-01-19T01:33:15.259Z,-0.05
2017-01-19T01:33:55.691Z,-0.19
2017-01-19T01:34:36.340Z,-0.31
2017-01-19T01:35:16.768Z,-0.25
2017-01-19T01:35:57.242Z,-0.39
2017-01-19T01:36:37.876Z,-0.31
2017-01-19T01:37:18.294Z,-0.25
2017-01-19T01:37:58.948Z,-0.14
2017-01-19T01:38:39.363Z,-0.23
2017-01-19T01:39:19.804Z,-0.31
2017-01-19T01:40:00.311Z,-0.49
2017-01-19T01:40:40.685Z,-0.28
2017-01-19T01:41:21.225Z,-0.25
2017-01-19T01:42:01.689Z,-0.28
2017-01-19T01:42:42.168Z,-0.22
2017-01-19T01:43:22.666Z,-0.16
2017-01-19T01:44:03.145Z,-0.05
2017-01-19T01:44:43.586Z,-0.08
2017-01-19T01:45:24.088Z,0.03
2017-01-19T01:46:04.602Z,-0.04
2017-01-19T01:46:45.068Z,-0.18
2017-01-19T01:47:25.652Z,-0.18
2017-01-19T01:48:06.088Z,-0.14
2017-01-19T01:48:46.636Z,-0.14
2017-01-19T01:49:27.173Z,-0.28
2017-01-19T01:50:07.636Z,-0.22
2017-01-19T01:50:48.116Z,-0.19
2017-01-19T01:51:28.639Z,-0.05
2017-01-19T01:52:09.218Z,-0.01
2017-01-19T01:52:49.680Z,0.04
2017-01-19T01:53:30.108Z,-0.08
2017-01-19T01:54:10.779Z,-0.07
2017-01-19T01:54:51.104Z,-0.07
2017-01-19T01:55:31.682Z,-0.04
2017-01-19T01:56:12.194Z,-0.1
2017-01-19T01:56:52.565Z,-0.03
2017-01-19T01:57:33.078Z,-0.03
2017-01-19T01:58:13.612Z,0.11
2017-01-19T01:58:54.088Z,0.14
2017-01-19T01:59:34.553Z,0.07
2017-01-19T02:00:14.980Z,0.03
2017-01-19T02:00:55.695Z,0.1
2017-01-19T02:01:36.186Z,-0.03
2017-01-19T02:02:16.552Z,-0.03
2017-01-19T02:02:57.302Z,-0.05
2017-01-19T02:03:37.964Z,0.02
2017-01-19T02:04:18.460Z,-0.04
2017-01-19T02:04:58.831Z,0.14
2017-01-19T02:05:39.421Z,0.03
2017-01-19T02:06:19.858Z,0.04
2017-01-19T02:07:00.329Z,0.11
2017-01-19T02:07:40.901Z,-0.05
2017-01-19T02:08:21.428Z,0
2017-01-19T02:09:01.968Z,0
2017-01-19T02:09:42.538Z,-0.03
2017-01-19T02:10:23.142Z,-0.01
2017-01-19T02:11:03.715Z,-0.03
2017-01-19T02:11:44.161Z,0.03
2017-01-19T02:12:24.607Z,-0.03
2017-01-19T02:13:05.103Z,0.03
2017-01-19T02:13:45.622Z,-0.1
2017-01-19T02:14:26.071Z,-0.04
2017-01-19T02:15:06.596Z,0.08
2017-01-19T02:15:47.240Z,0.04
2017-01-19T02:16:27.685Z,0.08
2017-01-19T02:17:08.147Z,0.15
2017-01-19T02:17:48.621Z,0.29
2017-01-19T02:18:29.145Z,0.18
2017-01-19T02:19:09.646Z,0.11
2017-01-19T02:19:50.142Z,0.07
2017-01-19T02:20:30.594Z,0.08
2017-01-19T02:21:11.050Z,0.04
2017-01-19T02:21:51.544Z,0.24
2017-01-19T02:22:32.119Z,0.17
2017-01-19T02:23:12.638Z,0.11
2017-01-19T02:23:53.134Z,0.18
2017-01-19T02:24:33.643Z,0.26
2017-01-19T02:25:14.147Z,0.24
2017-01-19T02:25:54.576Z,0.35
2017-01-19T02:26:35.065Z,0.31
2017-01-19T02:27:15.583Z,0.24
2017-01-19T02:27:56.095Z,0.21
2017-01-19T02:28:36.563Z,0.08
2017-01-19T02:29:17.016Z,-0.01
2017-01-19T02:29:57.502Z,0.07
2017-01-19T02:30:38.059Z,-0.11
2017-01-19T02:31:18.586Z,-0.08
2017-01-19T02:31:59.262Z,0
2017-01-19T02:32:39.711Z,-0.01
2017-01-19T02:33:20.220Z,-0.04
2017-01-19T02:34:00.962Z,-0.03
2017-01-19T02:34:41.440Z,0
2017-01-19T02:35:22.062Z,0
2017-01-19T02:36:02.603Z,0.14
2017-01-19T02:36:43.221Z,0.03
2017-01-19T02:37:23.715Z,0
2017-01-19T02:38:04.240Z,0.03
2017-01-19T02:38:44.772Z,0.08
2017-01-19T02:39:25.209Z,0.07
2017-01-19T02:40:05.640Z,0.1
2017-01-19T02:40:46.114Z,0.07
2017-01-19T02:41:26.615Z,0.03
2017-01-19T02:42:07.139Z,0.04
2017-01-19T02:42:47.627Z,0.04
2017-01-19T02:43:28.095Z,0.13
2017-01-19T02:44:08.596Z,0.04
2017-01-19T02:44:49.140Z,0.15
2017-01-19T02:45:29.646Z,0.17
2017-01-19T02:46:10.086Z,0
2017-01-19T02:46:50.600Z,0
2017-01-19T02:47:31.168Z,0.04
2017-01-19T02:48:11.531Z,-0.04
2017-01-19T02:48:52.946Z,-0.04
2017-01-19T02:49:32.723Z,-0.03
2017-01-19T02:50:13.090Z,0.08
2017-01-19T02:50:53.527Z,0.07
2017-01-19T02:51:34.098Z,0.26
2017-01-19T02:52:14.544Z,0.28
2017-01-19T02:52:55.039Z,0.36
2017-01-19T02:53:35.947Z,0.31
2017-01-19T02:54:15.978Z,0.2
2017-01-19T02:54:56.551Z,0.14
2017-01-19T02:55:36.984Z,0.11
2017-01-19T02:56:17.532Z,0.2
2017-01-19T02:56:58.014Z,0.18
2017-01-19T02:57:38.523Z,-0.04
2017-01-19T02:58:18.904Z,-0.08
2017-01-19T02:58:59.411Z,-0.11
2017-01-19T02:59:39.906Z,-0.21
2017-01-19T03:00:20.357Z,-0.16
2017-01-19T03:01:00.901Z,-0.05
2017-01-19T03:01:41.368Z,-0.11
2017-01-19T03:02:21.856Z,-0.21
2017-01-19T03:03:02.317Z,-0.11
2017-01-19T03:03:42.874Z,-0.04
2017-01-19T03:04:23.279Z,-0.01
2017-01-19T03:05:03.894Z,0.02
2017-01-19T03:05:44.335Z,-0.15
2017-01-19T03:06:24.778Z,-0.18
2017-01-19T03:07:05.316Z,-0.15
2017-01-19T03:07:45.763Z,-0.29
2017-01-19T03:08:26.261Z,-0.33
2017-01-19T03:09:06.797Z,-0.26
2017-01-19T03:09:47.308Z,-0.14
2017-01-19T03:10:27.781Z,-0.16
2017-01-19T03:11:08.312Z,-0.23
2017-01-19T03:11:48.771Z,-0.14
2017-01-19T03:12:29.290Z,-0.18
2017-01-19T03:13:09.745Z,-0.15
2017-01-19T03:13:50.252Z,-0.14
2017-01-19T03:14:30.706Z,-0.18
2017-01-19T03:15:11.211Z,-0.28
2017-01-19T03:15:51.671Z,-0.34
2017-01-19T03:16:32.212Z,-0.19
2017-01-19T03:17:12.781Z,-0.18
2017-01-19T03:17:53.184Z,-0.11
2017-01-19T03:18:33.661Z,-0.01
2017-01-19T03:19:14.204Z,0.04
2017-01-19T03:19:54.659Z,0
2017-01-19T03:20:35.124Z,-0.07
2017-01-19T03:21:15.618Z,-0.08
2017-01-19T03:21:56.086Z,-0.14
2017-01-19T03:22:36.587Z,-0.19
2017-01-19T03:23:17.070Z,-0.26
2017-01-19T03:23:57.639Z,-0.16
2017-01-19T03:24:38.042Z,-0.05
2017-01-19T03:25:18.556Z,-0.16
2017-01-19T03:25:58.995Z,-0.21
2017-01-19T03:26:39.550Z,-0.21
2017-01-19T03:27:20.024Z,-0.29
2017-01-19T03:28:00.470Z,-0.19
2017-01-19T03:28:40.938Z,-0.11
2017-01-19T03:29:21.452Z,-0.15
2017-01-19T03:30:01.927Z,-0.31
2017-01-19T03:30:42.406Z,-0.22
2017-01-19T03:31:22.920Z,-0.18
2017-01-19T03:32:03.434Z,-0.26
2017-01-19T03:32:43.933Z,-0.28
2017-01-19T03:33:24.365Z,-0.33
2017-01-19T03:34:04.876Z,-0.29
2017-01-19T03:34:45.372Z,-0.25
2017-01-19T03:35:25.876Z,-0.31
2017-01-19T03:36:06.326Z,-0.31
2017-01-19T03:36:46.798Z,-0.28
2017-01-19T03:37:27.293Z,-0.23
2017-01-19T03:38:07.743Z,-0.33
2017-01-19T03:38:48.340Z,-0.23
2017-01-19T03:39:28.807Z,-0.25
2017-01-19T03:40:09.347Z,-0.29
2017-01-19T03:40:49.857Z,-0.42
2017-01-19T03:41:30.295Z,-0.44
2017-01-19T03:42:10.795Z,-0.37
2017-01-19T03:42:51.257Z,-0.29
2017-01-19T03:43:31.782Z,-0.39
2017-01-19T03:44:12.241Z,-0.42
2017-01-19T03:44:52.736Z,-0.4
2017-01-19T03:45:33.307Z,-0.42
2017-01-19T03:46:13.806Z,-0.49
2017-01-19T03:46:54.235Z,-0.52
2017-01-19T03:47:34.767Z,-0.43
2017-01-19T03:48:15.203Z,-0.61
2017-01-19T03:48:55.690Z,-0.52
2017-01-19T03:49:36.201Z,-0.36
2017-01-19T03:50:16.640Z,-0.28
2017-01-19T03:50:57.162Z,-0.51
2017-01-19T03:51:37.602Z,-0.42
2017-01-19T03:52:18.143Z,-0.46
2017-01-19T03:52:58.602Z,-0.54
2017-01-19T03:53:39.135Z,-0.34
2017-01-19T03:54:19.674Z,-0.25
2017-01-19T03:55:00.230Z,-0.28
2017-01-19T03:55:40.682Z,-0.25
2017-01-19T03:56:21.098Z,-0.34
2017-01-19T03:57:01.575Z,-0.31
2017-01-19T03:57:42.049Z,-0.26
2017-01-19T03:58:22.578Z,-0.54
2017-01-19T03:59:03.049Z,-0.42
2017-01-19T03:59:43.522Z,-0.37
2017-01-19T04:00:24.009Z,-0.49
2017-01-19T04:01:04.526Z,-0.42
2017-01-19T04:01:44.969Z,-0.44
2017-01-19T04:02:25.521Z,-0.58
2017-01-19T04:03:06.071Z,-0.39
2017-01-19T04:03:46.537Z,-0.42
2017-01-19T04:04:26.961Z,-0.31
2017-01-19T04:05:07.419Z,-0.47
2017-01-19T04:05:47.960Z,-0.54
2017-01-19T04:06:28.427Z,-0.54
2017-01-19T04:07:08.915Z,-0.36
2017-01-19T04:07:49.456Z,-0.44
2017-01-19T04:08:29.888Z,-0.57
2017-01-19T04:09:10.347Z,-0.51
2017-01-19T04:09:50.875Z,-0.62
2017-01-19T04:10:31.383Z,-0.62
2017-01-19T04:11:11.863Z,-0.51
2017-01-19T04:11:52.402Z,-0.55
2017-01-19T04:12:32.871Z,-0.52
2017-01-19T04:13:13.338Z,-0.51
2017-01-19T04:13:53.802Z,-0.51
2017-01-19T04:14:34.309Z,-0.42
2017-01-19T04:15:14.780Z,-0.37
2017-01-19T04:15:55.241Z,-0.51
2017-01-19T04:16:36.089Z,-0.47
2017-01-19T04:17:16.234Z,-0.46
2017-01-19T04:17:56.678Z,-0.52
2017-01-19T04:18:37.158Z,-0.42
2017-01-19T04:19:17.655Z,-0.39
2017-01-19T04:19:58.153Z,-0.19
2017-01-19T04:20:38.659Z,-0.33
2017-01-19T04:21:19.146Z,-0.34
2017-01-19T04:21:59.581Z,-0.34
2017-01-19T04:22:40.077Z,-0.34
2017-01-19T04:23:20.555Z,-0.31
2017-01-19T04:24:01.022Z,-0.42
2017-01-19T04:24:41.499Z,-0.47
2017-01-19T04:25:22.019Z,-0.46
2017-01-19T04:26:02.488Z,-0.57
2017-01-19T04:26:43.038Z,-0.62
2017-01-19T04:27:23.503Z,-0.64
2017-01-19T04:28:03.993Z,-0.76
2017-01-19T04:28:44.629Z,-0.69
2017-01-19T04:29:25.124Z,-0.7
2017-01-19T04:30:05.589Z,-0.57
2017-01-19T04:30:46.096Z,-0.65
2017-01-19T04:31:26.564Z,-0.62
2017-01-19T04:32:07.087Z,-0.52
2017-01-19T04:32:47.542Z,-0.54
2017-01-19T04:33:28.033Z,-0.47
2017-01-19T04:34:08.495Z,-0.49
2017-01-19T04:34:49.038Z,-0.51
2017-01-19T04:35:29.478Z,-0.72
2017-01-19T04:36:10.052Z,-0.83
2017-01-19T04:36:50.502Z,-0.79
2017-01-19T04:37:31.004Z,-0.7
2017-01-19T04:38:11.534Z,-0.54
2017-01-19T04:38:52.117Z,-0.55
2017-01-19T04:39:32.436Z,-0.62
2017-01-19T04:40:12.936Z,-0.47
2017-01-19T04:40:53.425Z,-0.73
2017-01-19T04:41:33.925Z,-0.65
2017-01-19T04:42:14.439Z,-0.58
2017-01-19T04:42:54.877Z,-0.73
2017-01-19T04:43:35.353Z,-0.76
2017-01-19T04:44:15.819Z,-0.55
2017-01-19T04:44:56.353Z,-0.67
2017-01-19T04:45:36.869Z,-0.54
2017-01-19T04:46:17.351Z,-0.7
2017-01-19T04:46:57.978Z,-0.65
2017-01-19T04:47:38.437Z,-0.54
2017-01-19T04:48:18.954Z,-0.57
2017-01-19T04:48:59.630Z,-0.61
2017-01-19T04:49:39.980Z,-0.72
2017-01-19T04:50:20.455Z,-0.79
2017-01-19T04:51:00.927Z,-0.76
2017-01-19T04:51:41.443Z,-0.75
2017-01-19T04:52:21.868Z,-0.78
2017-01-19T04:53:02.427Z,-0.79
2017-01-19T04:53:42.968Z,-0.97
2017-01-19T04:54:23.438Z,-0.8
2017-01-19T04:55:04.057Z,-0.76
2017-01-19T04:55:44.632Z,-0.85
2017-01-19T04:56:25.077Z,-0.95
2017-01-19T04:57:05.546Z,-0.82
2017-01-19T04:57:45.958Z,-0.98
2017-01-19T04:58:26.442Z,-0.8
2017-01-19T04:59:07.103Z,-0.82
2017-01-19T04:59:47.586Z,-0.83
2017-01-19T05:00:28.015Z,-0.83
2017-01-19T05:01:08.534Z,-0.8
2017-01-19T05:01:49.018Z,-0.7
2017-01-19T05:02:29.464Z,-0.61
2017-01-19T05:03:10.227Z,-0.51
2017-01-19T05:03:50.660Z,-0.76
2017-01-19T05:04:31.227Z,-0.82
2017-01-19T05:05:11.700Z,-0.78
2017-01-19T05:05:52.222Z,-0.72
2017-01-19T05:06:32.620Z,-0.65
2017-01-19T05:07:13.099Z,-0.67
2017-01-19T05:07:53.609Z,-0.69
2017-01-19T05:08:34.129Z,-0.73
2017-01-19T05:09:14.602Z,-0.82
2017-01-19T05:09:55.083Z,-0.78
2017-01-19T05:10:35.523Z,-0.75
2017-01-19T05:11:16.067Z,-0.94
2017-01-19T05:11:56.553Z,-0.98
2017-01-19T05:12:37.044Z,-0.97
2017-01-19T05:13:17.490Z,-1.01
2017-01-19T05:13:57.995Z,-0.83
2017-01-19T05:14:38.498Z,-0.8
2017-01-19T05:15:18.960Z,-0.75
2017-01-19T05:15:59.470Z,-0.72
2017-01-19T05:16:39.956Z,-0.79
2017-01-19T05:17:20.479Z,-0.72
2017-01-19T05:18:00.965Z,-0.69
2017-01-19T05:18:41.416Z,-0.57
2017-01-19T05:19:21.893Z,-0.78
2017-01-19T05:20:02.419Z,-0.85
2017-01-19T05:20:42.904Z,-1.13
2017-01-19T05:21:23.343Z,-0.98
2017-01-19T05:22:03.829Z,-1.12
2017-01-19T05:22:44.325Z,-0.97
2017-01-19T05:23:24.803Z,-1.04
2017-01-19T05:24:05.327Z,-1.13
2017-01-19T05:24:45.847Z,-0.97
2017-01-19T05:25:26.214Z,-0.85
2017-01-19T05:26:06.707Z,-0.92
2017-01-19T05:26:47.211Z,-0.99
2017-01-19T05:27:27.660Z,-0.79
2017-01-19T05:28:08.162Z,-0.82
2017-01-19T05:28:48.671Z,-0.92
2017-01-19T05:29:29.126Z,-0.98
2017-01-19T05:30:09.676Z,-0.99
2017-01-19T05:30:50.160Z,-1.13
2017-01-19T05:31:30.625Z,-1.17
2017-01-19T05:32:11.117Z,-1.07
2017-01-19T05:32:51.586Z,-0.99
2017-01-19T05:33:32.066Z,-0.92
2017-01-19T05:34:12.555Z,-0.92
2017-01-19T05:34:53.051Z,-0.92
2017-01-19T05:35:33.673Z,-0.92
2017-01-19T05:36:14.073Z,-0.8
2017-01-19T05:36:54.600Z,-0.95
2017-01-19T05:37:35.067Z,-0.89
2017-01-19T05:38:15.547Z,-0.92
2017-01-19T05:38:56.056Z,-0.91
2017-01-19T05:39:36.629Z,-0.97
2017-01-19T05:40:17.052Z,-0.89
2017-01-19T05:40:57.516Z,-0.89
2017-01-19T05:41:38.027Z,-0.91
2017-01-19T05:42:18.448Z,-0.95
2017-01-19T05:42:58.922Z,-0.91
2017-01-19T05:43:39.408Z,-0.95
2017-01-19T05:44:19.903Z,-0.91
2017-01-19T05:45:00.369Z,-0.79
2017-01-19T05:45:40.808Z,-0.92
2017-01-19T05:46:21.534Z,-0.78
2017-01-19T05:47:01.852Z,-0.98
2017-01-19T05:49:03.978Z,-0.92
2017-01-19T05:49:44.350Z,-0.95
2017-01-19T05:50:24.820Z,-0.98
2017-01-19T05:51:05.377Z,-1.16
2017-01-19T05:51:45.801Z,-1.19
2017-01-19T05:52:26.267Z,-1.2
2017-01-19T05:53:06.774Z,-1.34
2017-01-19T05:53:47.508Z,-1.17
2017-01-19T05:54:28.017Z,-1.22
2017-01-19T05:55:08.547Z,-1.09
2017-01-19T05:55:49.056Z,-1.09
2017-01-19T05:56:29.527Z,-0.97
2017-01-19T05:57:10.016Z,-0.92
2017-01-19T05:57:50.698Z,-1.01
2017-01-19T05:58:31.273Z,-1.13
2017-01-19T05:59:11.876Z,-1.15
2017-01-19T05:59:52.311Z,-1.34
2017-01-19T06:00:32.765Z,-1.34
2017-01-19T06:01:13.219Z,-1.28
2017-01-19T06:01:53.869Z,-1.48
2017-01-19T06:02:34.714Z,-1.35
2017-01-19T06:03:15.269Z,-1.33
2017-01-19T06:03:55.907Z,-1.2
2017-01-19T06:04:36.374Z,-1.17
2017-01-19T06:05:16.954Z,-1.27
2017-01-19T06:05:57.507Z,-1.17
2017-01-19T06:06:37.891Z,-1.1
2017-01-19T06:07:18.440Z,-1.07
2017-01-19T06:09:06.535Z,-1.12
2017-01-19T06:09:47.538Z,-0.95
2017-01-19T06:10:28.058Z,-0.92
2017-01-19T06:11:08.530Z,-1.2
2017-01-19T06:11:49.123Z,-1.17
2017-01-19T06:12:29.629Z,-1.07
2017-01-19T06:13:10.725Z,-1.16
2017-01-19T06:13:51.137Z,-1.17
2017-01-19T06:14:31.840Z,-1.13
2017-01-19T06:15:12.271Z,-1.16
2017-01-19T06:15:52.732Z,-1.09
2017-01-19T06:16:33.341Z,-1.05
2017-01-19T06:17:14.061Z,-0.98
2017-01-19T06:17:54.404Z,-1.17
2017-01-19T06:18:34.917Z,-0.98
2017-01-19T06:19:16.186Z,-1.09
2017-01-19T06:19:57.075Z,-1.16
2017-01-19T06:20:38.522Z,-1.05
2017-01-19T06:21:22.643Z,-0.97
2017-01-19T06:22:03.197Z,-0.92
2017-01-19T06:22:43.805Z,-1.01
2017-01-19T06:23:24.592Z,-1.07
2017-01-19T06:24:04.898Z,-1.19
2017-01-19T06:24:45.661Z,-1.09
2017-01-19T06:25:26.632Z,-1.13
2017-01-19T06:26:07.087Z,-0.95
2017-01-19T06:26:48.445Z,-1.16
2017-01-19T06:27:28.951Z,-1.05
2017-01-19T06:28:09.398Z,-1.09
2017-01-19T06:28:50.346Z,-1.2
2017-01-19T06:29:30.976Z,-1.12
2017-01-19T06:30:11.509Z,-1.01
2017-01-19T06:30:52.451Z,-0.98
2017-01-19T06:31:33.378Z,-1.07
2017-01-19T06:32:14.024Z,-1.05
2017-01-19T06:32:54.482Z,-1.1
2017-01-19T06:33:36.109Z,-1.01
2017-01-19T06:34:16.679Z,-1.13
2017-01-19T06:34:57.820Z,-1.09
2017-01-19T06:35:38.351Z,-0.89
2017-01-19T06:36:21.740Z,-0.91
2017-01-19T06:37:04.672Z,-1.09
2017-01-19T06:38:43.606Z,-0.86
2017-01-19T06:39:24.738Z,-0.89
2017-01-19T06:40:06.111Z,-0.8
2017-01-19T06:40:47.002Z,-0.78
2017-01-19T06:41:30.256Z,-0.82
2017-01-19T06:42:21.084Z,-0.78
2017-01-19T06:42:58.583Z,-0.7
2017-01-19T06:43:39.321Z,-0.67
2017-01-19T06:44:19.919Z,-0.72
2017-01-19T06:45:00.693Z,-0.78
2017-01-19T06:45:41.060Z,-0.79
2017-01-19T06:46:21.543Z,-0.91
2017-01-19T06:47:02.423Z,-0.82
2017-01-19T06:47:43.951Z,-0.8
2017-01-19T06:48:24.641Z,-0.85
2017-01-19T06:49:05.356Z,-0.76
2017-01-19T06:49:45.810Z,-0.79
2017-01-19T06:50:26.554Z,-0.65
2017-01-19T06:51:07.058Z,-0.72
2017-01-19T06:51:47.585Z,-0.79
2017-01-19T06:52:28.217Z,-0.76
2017-01-19T06:53:09.678Z,-0.65
2017-01-19T06:53:50.434Z,-0.65
2017-01-19T06:54:31.695Z,-0.73
2017-01-19T06:55:12.592Z,-0.79
2017-01-19T06:55:53.532Z,-0.78
2017-01-19T06:56:34.209Z,-0.73
2017-01-19T06:57:15.356Z,-0.75
2017-01-19T06:57:55.907Z,-0.79
2017-01-19T06:58:36.738Z,-0.75
2017-01-19T06:59:17.412Z,-0.76
2017-01-19T06:59:57.865Z,-0.85
2017-01-19T07:00:38.851Z,-0.86
2017-01-19T07:01:19.896Z,-1.1
2017-01-19T07:02:01.322Z,-1.02
2017-01-19T07:02:42.100Z,-1.09
2017-01-19T07:04:25.844Z,-1.01
2017-01-19T07:05:16.639Z,-0.95
2017-01-19T07:05:58.180Z,-0.83
2017-01-19T07:06:38.795Z,-0.92
2017-01-19T07:07:19.613Z,-0.92
2017-01-19T07:08:00.062Z,-1.07
2017-01-19T07:10:15.067Z,-1.09
2017-01-19T07:10:55.999Z,-1.15
2017-01-19T07:12:44.089Z,-1.2
2017-01-19T07:13:24.651Z,-1.2
2017-01-19T07:14:05.124Z,-1.2
2017-01-19T07:14:45.679Z,-1.01
2017-01-19T07:15:26.222Z,-0.94
2017-01-19T07:16:06.676Z,-1.1
2017-01-19T07:16:47.186Z,-1.09
2017-01-19T07:17:27.642Z,-1.09
2017-01-19T07:18:08.320Z,-0.92
2017-01-19T07:18:48.664Z,-0.94
2017-01-19T07:19:29.194Z,-1.12
2017-01-19T07:20:09.648Z,-1.12
2017-01-19T07:20:50.156Z,-1.1
2017-01-19T07:21:30.643Z,-1.17
2017-01-19T07:22:18.675Z,-1.22
2017-01-19T07:22:57.577Z,-1.15
2017-01-19T07:23:38.346Z,-1.19
2017-01-19T07:24:18.710Z,-1.37
2017-01-19T07:24:59.127Z,-1.4
2017-01-19T07:25:39.676Z,-1.17
2017-01-19T07:26:20.183Z,-1.19
2017-01-19T07:27:00.655Z,-1.04
2017-01-19T07:27:41.105Z,-1.16
2017-01-19T07:28:21.594Z,-1.31
2017-01-19T07:29:02.117Z,-1.16
2017-01-19T07:29:42.755Z,-1.35
2017-01-19T07:30:23.181Z,-1.4
2017-01-19T07:31:03.740Z,-1.22
2017-01-19T07:31:44.189Z,-1.15
2017-01-19T07:32:24.744Z,-1.34
2017-01-19T07:33:05.256Z,-1.34
2017-01-19T07:33:45.736Z,-1.46
2017-01-19T07:34:26.212Z,-1.43
2017-01-19T07:35:06.698Z,-1.35
2017-01-19T07:35:47.213Z,-1.31
2017-01-19T07:36:27.702Z,-1.31
2017-01-19T07:37:08.232Z,-1.2
2017-01-19T07:37:48.857Z,-1.19
2017-01-19T07:38:29.326Z,-1.34
2017-01-19T07:39:09.828Z,-1.31
2017-01-19T07:39:50.295Z,-1.31
2017-01-19T07:40:30.757Z,-1.38
2017-01-19T07:41:11.273Z,-1.54
2017-01-19T07:41:51.734Z,-1.54
2017-01-19T07:42:32.163Z,-1.62
2017-01-19T07:43:12.685Z,-1.46
2017-01-19T07:43:53.170Z,-1.54
2017-01-19T07:44:33.688Z,-1.35
2017-01-19T07:45:14.221Z,-1.34
2017-01-19T07:45:54.680Z,-1.4
2017-01-19T07:46:35.187Z,-1.35
2017-01-19T07:47:15.672Z,-1.43
2017-01-19T07:47:56.283Z,-1.51
2017-01-19T07:48:36.733Z,-1.46
2017-01-19T07:49:17.164Z,-1.2
2017-01-19T07:49:57.694Z,-1.28
2017-01-19T07:50:38.217Z,-1.38
2017-01-19T07:51:18.687Z,-1.54
2017-01-19T07:51:59.219Z,-1.46
2017-01-19T07:52:39.683Z,-1.33
2017-01-19T07:53:20.196Z,-1.49
2017-01-19T07:54:00.761Z,-1.61
2017-01-19T07:54:41.160Z,-1.67
2017-01-19T07:55:21.654Z,-1.61
2017-01-19T07:56:02.150Z,-1.56
2017-01-19T07:56:42.663Z,-1.43
2017-01-19T07:57:23.184Z,-1.54
2017-01-19T07:58:03.602Z,-1.46
2017-01-19T07:58:44.101Z,-1.25
2017-01-19T07:59:24.569Z,-1.38
2017-01-19T08:00:05.047Z,-1.35
2017-01-19T08:00:45.691Z,-1.2
2017-01-19T08:01:26.183Z,-1.38
2017-01-19T08:02:06.594Z,-1.31
2017-01-19T08:02:47.109Z,-1.4
2017-01-19T08:03:27.625Z,-1.23
2017-01-19T08:04:08.094Z,-1.13
2017-01-19T08:04:48.543Z,-1.4
2017-01-19T08:05:31.507Z,-1.35
2017-01-19T08:06:10.388Z,-1.46
2017-01-19T08:06:50.833Z,-1.35
2017-01-19T08:07:31.317Z,-1.33
2017-01-19T08:08:11.792Z,-1.28
2017-01-19T08:08:52.312Z,-1.28
2017-01-19T08:09:32.778Z,-1.16
2017-01-19T08:10:13.282Z,-1.07
2017-01-19T08:10:53.750Z,-1.09
2017-01-19T08:11:34.249Z,-0.94
2017-01-19T08:12:14.772Z,-1.07
2017-01-19T08:12:55.302Z,-0.94
2017-01-19T08:13:35.792Z,-1.16
2017-01-19T08:14:16.261Z,-1.1
2017-01-19T08:14:56.771Z,-1.13
2017-01-19T08:15:37.236Z,-1.1
2017-01-19T08:16:17.745Z,-0.95
2017-01-19T08:16:58.217Z,-0.94
2017-01-19T08:17:38.709Z,-1.37
2017-01-19T08:18:19.204Z,-1.37
2017-01-19T08:18:59.674Z,-1.41
2017-01-19T08:19:40.117Z,-1.37
2017-01-19T08:20:20.655Z,-1.41
2017-01-19T08:21:01.159Z,-1.27
2017-01-19T08:21:41.602Z,-1.05
2017-01-19T08:22:22.075Z,-0.92
2017-01-19T08:23:02.610Z,-0.92
2017-01-19T08:23:43.059Z,-0.97
2017-01-19T08:24:23.550Z,-0.99
2017-01-19T08:25:04.065Z,-1.1
2017-01-19T08:25:44.530Z,-1.09
2017-01-19T08:26:25.023Z,-1.1
2017-01-19T08:27:05.570Z,-1.01
2017-01-19T08:27:46.032Z,-1.17
2017-01-19T08:28:26.622Z,-1.16
2017-01-19T08:29:07.079Z,-1.25
2017-01-19T08:29:47.566Z,-1.15
2017-01-19T08:30:28.046Z,-1.37
2017-01-19T08:31:08.533Z,-1.23
2017-01-19T08:31:49.023Z,-1.19
2017-01-19T08:32:29.518Z,-1.12
2017-01-19T08:33:10.042Z,-1.2
2017-01-19T08:33:50.521Z,-1.25
2017-01-19T08:34:31.033Z,-1.17
2017-01-19T08:35:11.513Z,-1.04
2017-01-19T08:35:52.017Z,-1.15
2017-01-19T08:36:32.500Z,-1.13
2017-01-19T08:37:13.029Z,-1.12
2017-01-19T08:37:53.484Z,-1.09
2017-01-19T08:38:34.008Z,-1.16
2017-01-19T08:39:14.484Z,-1.1
2017-01-19T08:39:54.980Z,-1.05
2017-01-19T08:40:35.471Z,-1.07
2017-01-19T08:41:15.975Z,-1.16
2017-01-19T08:41:56.475Z,-1.07
2017-01-19T08:42:36.956Z,-0.99
2017-01-19T08:43:17.486Z,-1.05
2017-01-19T08:43:58.018Z,-0.99
2017-01-19T08:44:38.483Z,-1.05
2017-01-19T08:45:19.026Z,-0.98
2017-01-19T08:45:59.505Z,-0.95
2017-01-19T08:46:39.982Z,-1.07
2017-01-19T08:47:20.467Z,-0.95
2017-01-19T08:48:00.951Z,-0.92
2017-01-19T08:48:41.412Z,-0.89
2017-01-19T08:49:21.901Z,-0.95
2017-01-19T08:50:02.366Z,-0.98
2017-01-19T08:50:42.872Z,-0.83
2017-01-19T08:51:23.307Z,-0.98
2017-01-19T08:52:03.788Z,-0.91
2017-01-19T08:52:44.277Z,-0.98
2017-01-19T08:53:24.854Z,-0.97
2017-01-19T08:54:05.351Z,-0.98
2017-01-19T08:54:45.941Z,-1.09
2017-01-19T08:55:26.366Z,-1.15
2017-01-19T08:56:06.832Z,-1.09
2017-01-19T08:56:47.316Z,-1.05
2017-01-19T08:57:27.826Z,-0.97